Time;durP1;ratioP1;P1;durP2;ratioP2;P2;SDS_P1;SDS_P2;PMS_P1;PMS_P2;Temp;Humidity;BMP_temperature;BMP_pressure;BME280_temperature;BME280_humidity;BME280_pressure;Samples;Min_cycle;Max_cycle;Signal;HPM_P1;HPM_P2
2021/09/02 00:01:40;;;;;;;6.43;5.30;;;10.80;99.90;;;;;;4978909;28;20256;-79
2021/09/02 00:04:07;;;;;;;7.60;5.90;;;10.70;99.90;;;;;;4978008;28;20214;-79
2021/09/02 00:06:34;;;;;;;7.70;5.67;;;10.70;99.90;;;;;;4981636;28;20226;-79
2021/09/02 00:09:02;;;;;;;7.63;6.50;;;10.70;99.90;;;;;;4983479;28;20683;-80
2021/09/02 00:11:29;;;;;;;8.57;6.00;;;10.60;99.90;;;;;;4968388;28;20206;-79
2021/09/02 00:13:56;;;;;;;7.40;5.87;;;10.60;99.90;;;;;;4970567;28;20206;-79
2021/09/02 00:16:23;;;;;;;8.63;6.00;;;10.60;99.90;;;;;;4975158;28;20226;-79
2021/09/02 00:18:49;;;;;;;8.13;6.00;;;10.60;99.90;;;;;;4969071;28;20270;-79
2021/09/02 00:21:16;;;;;;;7.47;5.93;;;10.60;99.90;;;;;;4976554;28;20655;-79
2021/09/02 00:23:43;;;;;;;6.13;5.37;;;10.60;99.90;;;;;;4968216;28;20206;-79
2021/09/02 00:26:11;;;;;;;6.80;5.83;;;10.50;99.90;;;;;;4974236;28;20722;-79
2021/09/02 00:28:38;;;;;;;7.73;5.73;;;10.50;99.90;;;;;;4973053;28;20210;-79
2021/09/02 00:31:05;;;;;;;7.20;5.70;;;10.50;99.90;;;;;;4971319;28;20675;-79
2021/09/02 00:33:32;;;;;;;7.37;5.73;;;10.40;99.90;;;;;;4984759;28;20206;-79
2021/09/02 00:35:58;;;;;;;7.60;6.03;;;10.40;99.90;;;;;;4969409;28;20221;-80
2021/09/02 00:38:25;;;;;;;7.13;6.17;;;10.40;99.90;;;;;;4971884;28;20694;-77
2021/09/02 00:40:52;;;;;;;7.13;5.80;;;10.40;99.90;;;;;;4985863;28;20198;-79
2021/09/02 00:43:20;;;;;;;6.60;5.70;;;10.40;99.90;;;;;;4979608;28;20619;-79
2021/09/02 00:45:47;;;;;;;6.77;5.60;;;10.40;99.90;;;;;;4967919;28;20276;-79
2021/09/02 00:48:15;;;;;;;6.03;5.43;;;10.40;99.90;;;;;;4970034;28;20194;-79
2021/09/02 00:50:42;;;;;;;8.07;5.70;;;10.30;99.90;;;;;;4972693;28;20256;-79
2021/09/02 00:53:09;;;;;;;7.07;5.83;;;10.30;99.90;;;;;;4984208;28;20245;-79
2021/09/02 00:55:35;;;;;;;8.20;5.83;;;10.30;99.90;;;;;;4973261;28;20217;-79
2021/09/02 00:58:03;;;;;;;8.00;5.70;;;10.30;99.90;;;;;;4980530;28;20366;-79
2021/09/02 01:00:32;;;;;;;11.53;10.63;;;10.20;99.90;;;;;;4974194;28;20210;-79
2021/09/02 01:02:58;;;;;;;12.70;11.60;;;10.20;99.90;;;;;;4966486;28;20248;-79
2021/09/02 01:05:25;;;;;;;13.03;11.93;;;10.20;99.90;;;;;;4970536;28;20226;-79
2021/09/02 01:07:53;;;;;;;12.90;11.80;;;10.20;99.90;;;;;;4982237;28;20664;-78
2021/09/02 01:10:20;;;;;;;12.37;11.00;;;10.10;99.90;;;;;;4963599;28;20193;-79
2021/09/02 01:12:49;;;;;;;10.87;9.97;;;10.10;99.90;;;;;;4969510;28;20195;-79
2021/09/02 01:15:19;;;;;;;13.33;12.13;;;10.00;99.90;;;;;;4972148;28;20296;-79
2021/09/02 01:17:49;;;;;;;12.07;11.07;;;10.00;99.90;;;;;;4967175;28;20686;-79
2021/09/02 01:20:18;;;;;;;12.90;11.90;;;10.00;99.90;;;;;;4967909;28;20254;-79
2021/09/02 01:22:47;;;;;;;12.27;11.27;;;10.00;99.90;;;;;;4967376;28;20256;-79
2021/09/02 01:25:17;;;;;;;12.63;11.63;;;10.00;99.90;;;;;;4981998;28;20276;-79
2021/09/02 01:27:46;;;;;;;13.73;12.53;;;9.90;99.90;;;;;;4967298;28;20238;-78
2021/09/02 01:30:15;;;;;;;12.37;11.37;;;9.90;99.90;;;;;;4982019;28;20626;-79
2021/09/02 01:32:44;;;;;;;12.47;11.57;;;9.90;99.90;;;;;;4969485;28;20197;-79
2021/09/02 01:35:12;;;;;;;12.63;11.53;;;9.90;99.90;;;;;;4968692;28;20222;-79
2021/09/02 01:37:41;;;;;;;12.93;12.03;;;9.90;99.90;;;;;;4966869;28;20214;-79
2021/09/02 01:40:09;;;;;;;13.13;12.03;;;9.90;99.90;;;;;;4966830;28;20635;-79
2021/09/02 01:42:37;;;;;;;12.10;11.10;;;9.80;99.90;;;;;;4965539;28;20202;-79
2021/09/02 01:45:05;;;;;;;8.33;6.33;;;9.80;99.90;;;;;;4969475;28;20229;-80
2021/09/02 01:47:32;;;;;;;7.33;6.30;;;9.80;99.90;;;;;;4970231;28;20208;-79
2021/09/02 01:50:07;;;;;;;7.93;6.90;;;9.70;99.90;;;;;;4966083;28;20210;-79
2021/09/02 01:52:34;;;;;;;8.60;7.20;;;9.70;99.90;;;;;;4976858;28;20208;-79
2021/09/02 01:55:01;;;;;;;10.10;7.87;;;9.70;99.90;;;;;;4966668;28;20194;-79
2021/09/02 01:57:28;;;;;;;11.13;10.13;;;9.70;99.90;;;;;;4966543;28;20226;-79
2021/09/02 01:59:56;;;;;;;16.70;15.37;;;9.70;99.90;;;;;;4970420;28;20638;-79
2021/09/02 02:02:23;;;;;;;9.17;8.33;;;9.70;99.90;;;;;;4971016;28;20204;-79
2021/09/02 02:04:50;;;;;;;12.60;11.50;;;9.60;99.90;;;;;;4978089;28;20210;-79
2021/09/02 02:07:17;;;;;;;9.70;8.70;;;9.60;99.90;;;;;;4970095;28;20190;-79
2021/09/02 02:09:44;;;;;;;11.03;9.93;;;9.60;99.90;;;;;;4969674;28;20202;-78
2021/09/02 02:12:11;;;;;;;11.20;10.20;;;9.60;99.90;;;;;;4965020;28;20209;-79
2021/09/02 02:14:38;;;;;;;11.83;10.87;;;9.50;99.90;;;;;;4966585;28;20325;-79
2021/09/02 02:17:06;;;;;;;7.77;7.00;;;9.50;99.90;;;;;;4980713;28;20650;-79
2021/09/02 02:19:34;;;;;;;11.17;10.10;;;9.50;99.90;;;;;;4978504;28;20737;-79
2021/09/02 02:22:00;;;;;;;13.93;12.73;;;9.50;99.90;;;;;;4982386;28;20213;-79
2021/09/02 02:24:27;;;;;;;12.27;11.17;;;9.50;99.90;;;;;;4984421;28;20265;-78
2021/09/02 02:26:54;;;;;;;13.20;12.00;;;9.40;99.90;;;;;;4966125;28;20223;-79
2021/09/02 02:29:21;;;;;;;10.97;9.70;;;9.50;99.90;;;;;;4966656;28;20580;-79
2021/09/02 02:31:48;;;;;;;10.83;9.83;;;9.40;99.90;;;;;;4969372;28;20746;-78
2021/09/02 02:34:17;;;;;;;8.57;6.20;;;9.40;99.90;;;;;;4966233;28;20202;-79
2021/09/02 02:36:44;;;;;;;7.27;6.20;;;9.40;99.90;;;;;;4971200;28;20226;-79
2021/09/02 02:39:11;;;;;;;7.63;6.57;;;9.30;99.90;;;;;;4969630;28;20218;-79
2021/09/02 02:41:38;;;;;;;9.57;8.40;;;9.30;99.90;;;;;;4977514;28;20213;-80
2021/09/02 02:44:05;;;;;;;13.50;12.33;;;9.30;99.90;;;;;;4981229;28;20204;-79
2021/09/02 02:46:32;;;;;;;8.40;6.63;;;9.30;99.90;;;;;;4961609;28;20221;-80
2021/09/02 02:48:59;;;;;;;11.77;10.77;;;9.30;99.90;;;;;;4976788;28;20202;-78
2021/09/02 02:51:27;;;;;;;8.50;6.80;;;9.20;99.90;;;;;;4963881;28;20272;-78
2021/09/02 02:53:54;;;;;;;12.63;11.63;;;9.30;99.90;;;;;;4971850;28;20202;-78
2021/09/02 02:56:21;;;;;;;13.77;12.57;;;9.30;99.90;;;;;;4965223;28;20636;-78
2021/09/02 02:58:48;;;;;;;13.73;12.67;;;9.20;99.90;;;;;;4964413;28;20233;-78
2021/09/02 03:01:15;;;;;;;13.43;12.33;;;9.20;99.90;;;;;;4968958;28;20245;-81
2021/09/02 03:03:45;;;;;;;13.67;12.37;;;9.20;99.90;;;;;;4972675;28;20208;-79
2021/09/02 03:06:13;;;;;;;14.20;13.00;;;9.10;99.90;;;;;;4989292;28;20220;-77
2021/09/02 03:08:42;;;;;;;14.07;12.87;;;9.20;99.90;;;;;;4956967;28;20229;-78
2021/09/02 03:11:12;;;;;;;13.73;12.63;;;9.10;99.90;;;;;;4964115;28;20209;-79
2021/09/02 03:13:39;;;;;;;15.53;14.40;;;9.10;99.90;;;;;;4977137;28;20205;-78
2021/09/02 03:16:06;;;;;;;13.93;12.83;;;9.10;99.90;;;;;;4961418;28;20220;-78
2021/09/02 03:18:33;;;;;;;13.50;12.50;;;9.10;99.90;;;;;;4962103;28;20691;-78
2021/09/02 03:21:00;;;;;;;14.43;13.23;;;9.10;99.90;;;;;;4965931;28;20253;-78
2021/09/02 03:23:27;;;;;;;13.97;12.87;;;9.10;99.90;;;;;;4967912;28;20212;-79
2021/09/02 03:25:55;;;;;;;14.00;12.80;;;9.10;99.90;;;;;;4968998;28;20280;-79
2021/09/02 03:28:21;;;;;;;14.57;13.43;;;9.10;99.90;;;;;;4982451;28;20635;-78
2021/09/02 03:30:48;;;;;;;14.37;13.17;;;9.10;99.90;;;;;;4971504;28;20202;-78
2021/09/02 03:33:15;;;;;;;13.70;12.60;;;9.10;99.90;;;;;;4973696;28;20287;-78
2021/09/02 03:35:42;;;;;;;15.03;13.83;;;9.10;99.90;;;;;;4967342;28;20617;-78
2021/09/02 03:38:09;;;;;;;13.67;12.57;;;9.00;99.90;;;;;;4967862;28;20222;-79
2021/09/02 03:40:36;;;;;;;14.63;13.33;;;8.90;99.90;;;;;;4978882;28;20259;-79
2021/09/02 03:43:04;;;;;;;13.87;12.77;;;8.90;99.90;;;;;;4966106;28;20263;-78
2021/09/02 03:45:31;;;;;;;13.87;12.77;;;8.80;99.90;;;;;;4964120;28;20234;-79
2021/09/02 03:47:59;;;;;;;14.17;12.87;;;8.80;99.90;;;;;;4977250;28;20222;-78
2021/09/02 03:50:26;;;;;;;14.20;13.10;;;8.80;99.90;;;;;;4970033;28;20272;-78
2021/09/02 03:52:53;;;;;;;13.73;12.63;;;8.80;99.90;;;;;;4965569;28;20192;-79
2021/09/02 03:55:20;;;;;;;14.00;13.00;;;8.80;99.90;;;;;;4972892;28;20229;-78
2021/09/02 03:57:46;;;;;;;14.77;13.67;;;8.80;99.90;;;;;;4969800;28;20260;-78
2021/09/02 04:00:15;;;;;;;16.07;14.83;;;8.80;99.90;;;;;;4968036;28;20204;-78
2021/09/02 04:02:42;;;;;;;14.87;13.60;;;8.80;99.90;;;;;;4964163;28;20213;-78
2021/09/02 04:05:10;;;;;;;16.17;14.97;;;8.70;99.90;;;;;;4980320;28;20224;-78
2021/09/02 04:07:37;;;;;;;15.87;14.53;;;8.80;99.90;;;;;;4977478;28;20214;-79
2021/09/02 04:10:04;;;;;;;15.17;14.00;;;8.70;99.90;;;;;;4981224;28;20583;-78
2021/09/02 04:12:31;;;;;;;16.03;14.70;;;8.70;99.90;;;;;;4984163;28;20216;-78
2021/09/02 04:14:58;;;;;;;16.20;14.70;;;8.70;99.90;;;;;;4980656;28;20263;-78
2021/09/02 04:17:26;;;;;;;16.67;15.37;;;8.70;99.90;;;;;;4963779;28;20208;-78
2021/09/02 04:19:53;;;;;;;15.30;14.20;;;8.70;99.90;;;;;;4964967;28;20660;-78
2021/09/02 04:22:20;;;;;;;15.57;14.37;;;8.70;99.90;;;;;;4964484;28;20251;-79
2021/09/02 04:24:47;;;;;;;15.57;14.47;;;8.60;99.90;;;;;;4968380;28;20210;-78
2021/09/02 04:27:15;;;;;;;16.10;14.83;;;8.60;99.90;;;;;;4967282;28;20195;-78
2021/09/02 04:29:42;;;;;;;15.97;14.77;;;8.60;99.90;;;;;;4977286;28;20254;-78
2021/09/02 04:32:10;;;;;;;16.00;14.80;;;8.60;99.90;;;;;;4980961;28;20279;-78
2021/09/02 04:34:38;;;;;;;17.27;15.90;;;8.60;99.90;;;;;;4964886;28;20196;-79
2021/09/02 04:37:05;;;;;;;17.07;15.50;;;8.60;99.90;;;;;;4966171;28;20595;-78
2021/09/02 04:39:32;;;;;;;16.63;15.33;;;8.50;99.90;;;;;;4970159;28;20225;-78
2021/09/02 04:41:59;;;;;;;17.20;15.90;;;8.50;99.90;;;;;;4969792;28;20197;-79
2021/09/02 04:44:26;;;;;;;17.00;15.70;;;8.50;99.90;;;;;;4979233;28;20641;-78
2021/09/02 04:46:53;;;;;;;17.17;15.87;;;8.50;99.90;;;;;;4972855;28;20221;-78
2021/09/02 04:49:20;;;;;;;16.63;15.53;;;8.50;99.90;;;;;;4968388;28;20201;-78
2021/09/02 04:51:48;;;;;;;16.70;15.40;;;8.50;99.90;;;;;;4967031;28;20695;-78
2021/09/02 04:54:15;;;;;;;17.33;15.90;;;8.50;99.90;;;;;;4969706;28;20274;-78
2021/09/02 04:56:42;;;;;;;16.93;15.53;;;8.50;99.90;;;;;;4971509;28;20232;-78
2021/09/02 04:59:08;;;;;;;18.17;16.57;;;8.50;99.90;;;;;;4979626;28;20227;-78
2021/09/02 05:01:35;;;;;;;16.73;15.50;;;8.50;99.90;;;;;;4980375;28;20250;-78
2021/09/02 05:04:02;;;;;;;17.97;16.57;;;8.50;99.90;;;;;;4968217;28;20646;-78
2021/09/02 05:06:29;;;;;;;18.87;17.37;;;8.50;99.90;;;;;;4967952;28;20211;-78
2021/09/02 05:08:57;;;;;;;19.03;17.40;;;8.60;99.90;;;;;;4968027;28;20200;-78
2021/09/02 05:11:24;;;;;;;18.57;17.17;;;8.60;99.90;;;;;;4972940;28;20263;-78
2021/09/02 05:13:51;;;;;;;19.60;17.90;;;8.60;99.90;;;;;;4979465;28;20205;-78
2021/09/02 05:16:17;;;;;;;19.07;17.40;;;8.60;99.90;;;;;;4984692;28;20225;-78
2021/09/02 05:18:44;;;;;;;17.80;16.50;;;8.70;99.90;;;;;;4965705;28;20689;-79
2021/09/02 05:21:11;;;;;;;17.53;16.23;;;8.70;99.90;;;;;;4969751;28;20197;-78
2021/09/02 05:23:38;;;;;;;17.17;15.90;;;8.70;99.90;;;;;;4966347;28;20256;-78
2021/09/02 05:26:06;;;;;;;17.90;16.40;;;8.80;99.90;;;;;;4982450;28;20287;-78
2021/09/02 05:28:33;;;;;;;17.67;16.37;;;8.90;99.90;;;;;;4970883;28;20208;-78
2021/09/02 05:30:59;;;;;;;17.63;16.33;;;8.90;99.90;;;;;;4968905;28;20246;-78
2021/09/02 05:33:26;;;;;;;17.60;16.10;;;9.00;99.90;;;;;;4982174;28;20209;-79
2021/09/02 05:35:53;;;;;;;17.40;16.17;;;9.10;99.90;;;;;;4980464;28;20285;-79
2021/09/02 05:38:20;;;;;;;16.87;15.57;;;9.30;99.90;;;;;;4957325;28;20623;-78
2021/09/02 05:40:47;;;;;;;16.57;15.37;;;9.40;99.90;;;;;;4972116;28;20260;-78
2021/09/02 05:43:15;;;;;;;9.20;8.20;;;9.50;99.90;;;;;;4967355;28;20206;-77
2021/09/02 05:45:41;;;;;;;11.03;9.93;;;9.60;99.90;;;;;;4968532;28;20280;-77
2021/09/02 05:48:08;;;;;;;16.37;15.07;;;9.70;99.90;;;;;;4973604;28;20198;-78
2021/09/02 05:50:35;;;;;;;9.57;8.53;;;9.90;99.90;;;;;;4970798;28;20276;-79
2021/09/02 05:53:02;;;;;;;8.23;6.70;;;9.90;99.90;;;;;;4967448;28;20208;-78
2021/09/02 05:55:29;;;;;;;14.40;13.40;;;10.00;99.90;;;;;;4966875;28;20242;-79
2021/09/02 05:57:56;;;;;;;7.20;6.00;;;10.00;99.90;;;;;;4982552;28;20253;-77
2021/09/02 06:00:24;;;;;;;9.00;8.30;;;10.10;99.90;;;;;;4983564;28;20221;-78
2021/09/02 06:02:51;;;;;;;7.87;6.77;;;10.20;99.90;;;;;;4980026;28;20666;-78
2021/09/02 06:05:18;;;;;;;6.03;5.43;;;10.30;99.90;;;;;;4978187;28;20731;-78
2021/09/02 06:07:45;;;;;;;7.20;5.87;;;10.50;99.90;;;;;;4988047;28;20341;-78
2021/09/02 06:10:12;;;;;;;6.10;5.60;;;10.60;99.90;;;;;;4970816;28;20190;-79
2021/09/02 06:12:39;;;;;;;5.93;5.40;;;10.70;99.90;;;;;;4970098;28;20210;-79
2021/09/02 06:15:07;;;;;;;6.87;6.20;;;10.80;99.90;;;;;;4975346;28;20709;-78
2021/09/02 06:17:35;;;;;;;6.87;6.17;;;10.90;99.90;;;;;;4985108;28;20206;-78
2021/09/02 06:20:02;;;;;;;6.43;5.83;;;11.00;99.90;;;;;;4968677;28;20688;-78
2021/09/02 06:22:29;;;;;;;9.67;8.97;;;11.10;99.90;;;;;;4982076;28;20197;-78
2021/09/02 06:24:56;;;;;;;15.33;14.23;;;11.30;99.90;;;;;;4985144;28;20206;-79
2021/09/02 06:27:23;;;;;;;15.57;14.57;;;11.40;99.90;;;;;;4972458;28;20206;-78
2021/09/02 06:29:49;;;;;;;16.80;15.70;;;11.50;99.90;;;;;;4985049;28;20210;-79
2021/09/02 06:32:16;;;;;;;9.53;8.83;;;11.60;99.90;;;;;;4969828;28;20289;-78
2021/09/02 06:34:49;;;;;;;10.17;9.37;;;11.70;99.90;;;;;;4988464;28;20582;-78
2021/09/02 06:37:17;;;;;;;10.17;9.37;;;11.80;99.90;;;;;;4979893;28;20229;-78
2021/09/02 06:39:44;;;;;;;9.00;8.20;;;11.80;99.90;;;;;;4986481;28;20313;-79
2021/09/02 06:42:11;;;;;;;8.80;8.00;;;11.90;99.90;;;;;;4968921;28;20225;-79
2021/09/02 06:44:39;;;;;;;8.43;7.63;;;12.00;99.90;;;;;;4974287;28;20236;-79
2021/09/02 06:47:06;;;;;;;15.23;14.20;;;12.00;99.90;;;;;;4983393;28;20317;-79
2021/09/02 06:49:34;;;;;;;16.70;15.50;;;12.10;99.90;;;;;;4977532;28;20631;-79
2021/09/02 06:52:02;;;;;;;16.03;14.93;;;12.10;99.90;;;;;;4968852;28;20203;-79
2021/09/02 06:54:30;;;;;;;16.53;15.13;;;12.20;99.90;;;;;;4982232;28;20589;-79
2021/09/02 06:56:58;;;;;;;14.90;13.83;;;12.20;99.90;;;;;;4994690;23;20276;-79
2021/09/02 06:59:25;;;;;;;16.40;15.23;;;12.30;99.90;;;;;;5000670;28;20214;-79
2021/09/02 07:01:52;;;;;;;14.50;13.50;;;12.50;99.90;;;;;;5006307;28;20296;-79
2021/09/02 07:04:20;;;;;;;16.43;15.27;;;12.50;99.90;;;;;;4993623;28;20213;-79
2021/09/02 07:06:47;;;;;;;14.40;13.30;;;12.60;99.90;;;;;;4992232;28;20301;-78
2021/09/02 07:09:16;;;;;;;13.63;12.60;;;12.70;99.90;;;;;;4991388;28;20672;-77
2021/09/02 07:11:43;;;;;;;11.23;10.33;;;12.80;99.90;;;;;;4998220;23;20231;-76
2021/09/02 07:14:09;;;;;;;10.80;9.90;;;12.90;99.90;;;;;;4971971;28;20201;-78
2021/09/02 07:16:36;;;;;;;11.90;10.90;;;13.10;99.90;;;;;;4988181;28;20227;-77
2021/09/02 07:19:03;;;;;;;13.37;12.27;;;13.50;99.90;;;;;;4974087;28;20706;-77
2021/09/02 07:21:30;;;;;;;12.07;11.07;;;13.80;99.90;;;;;;4969733;28;20229;-79
2021/09/02 07:23:57;;;;;;;9.97;9.13;;;14.20;99.90;;;;;;4975576;28;20742;-77
2021/09/02 07:26:25;;;;;;;15.57;14.33;;;14.60;99.90;;;;;;4978479;28;20205;-77
2021/09/02 07:28:52;;;;;;;12.57;11.57;;;14.90;99.90;;;;;;4976134;28;20681;-78
2021/09/02 07:31:19;;;;;;;11.93;10.97;;;15.20;99.90;;;;;;4971288;28;20225;-79
2021/09/02 07:33:46;;;;;;;12.90;11.67;;;15.70;99.90;;;;;;4970342;28;20203;-79
2021/09/02 07:36:13;;;;;;;9.97;9.17;;;16.10;99.90;;;;;;4964207;28;20201;-79
2021/09/02 07:38:39;;;;;;;10.30;9.40;;;16.50;99.90;;;;;;4970268;28;20204;-78
2021/09/02 07:41:06;;;;;;;13.23;12.23;;;16.90;99.90;;;;;;4962843;28;20251;-77
2021/09/02 07:43:34;;;;;;;13.60;12.70;;;17.30;99.90;;;;;;4970297;28;20669;-78
2021/09/02 07:46:01;;;;;;;9.50;8.70;;;17.50;99.90;;;;;;4975351;28;20242;-78
2021/09/02 07:48:28;;;;;;;6.90;5.60;;;17.60;99.90;;;;;;4975319;28;20441;-77
2021/09/02 07:50:55;;;;;;;6.60;5.90;;;17.80;99.90;;;;;;4972743;28;20217;-77
2021/09/02 07:53:22;;;;;;;9.67;8.80;;;18.00;99.90;;;;;;4972201;28;20678;-77
2021/09/02 07:55:49;;;;;;;10.77;9.87;;;18.40;99.90;;;;;;4970934;28;20201;-77
2021/09/02 07:58:15;;;;;;;10.00;9.20;;;18.50;99.90;;;;;;4977820;28;20209;-77
2021/09/02 08:00:44;;;;;;;7.10;6.40;;;18.40;99.90;;;;;;4977145;28;20229;-76
2021/09/02 08:03:11;;;;;;;11.90;10.83;;;18.70;99.90;;;;;;4971827;28;20194;-78
2021/09/02 08:05:39;;;;;;;8.03;5.90;;;19.00;99.90;;;;;;4971013;28;20240;-76
2021/09/02 08:08:06;;;;;;;8.47;7.63;;;19.20;99.90;;;;;;4969396;28;20198;-78
2021/09/02 08:10:33;;;;;;;9.47;8.57;;;19.50;99.90;;;;;;4970338;28;20249;-76
2021/09/02 08:13:00;;;;;;;8.97;8.13;;;19.20;99.90;;;;;;4967904;28;20202;-77
2021/09/02 08:15:27;;;;;;;14.50;13.17;;;19.40;99.90;;;;;;4975474;28;20197;-75
2021/09/02 08:17:58;;;;;;;12.00;11.00;;;19.60;99.90;;;;;;4977414;28;20622;-77
2021/09/02 08:20:25;;;;;;;8.50;7.60;;;19.70;99.90;;;;;;4970979;28;20235;-77
2021/09/02 08:22:52;;;;;;;11.40;10.50;;;19.30;99.90;;;;;;4971551;28;20208;-76
2021/09/02 08:25:19;;;;;;;13.80;12.80;;;19.50;99.90;;;;;;4979480;28;20202;-79
2021/09/02 08:27:46;;;;;;;13.10;12.10;;;19.30;99.90;;;;;;4971726;28;20678;-80
2021/09/02 08:30:14;;;;;;;12.13;11.13;;;19.60;99.90;;;;;;4973485;28;20217;-76
2021/09/02 08:32:47;;;;;;;14.17;13.07;;;19.80;99.90;;;;;;4967907;28;20229;-77
2021/09/02 08:35:15;;;;;;;14.40;13.30;;;19.90;99.90;;;;;;4975235;28;20197;-77
2021/09/02 08:37:42;;;;;;;13.90;12.90;;;20.30;99.90;;;;;;4987127;28;20213;-76
2021/09/02 08:40:10;;;;;;;13.53;12.37;;;20.40;99.90;;;;;;4976486;28;20280;-77
2021/09/02 08:42:37;;;;;;;15.07;13.97;;;20.60;99.90;;;;;;4979404;28;20201;-77
2021/09/02 08:45:06;;;;;;;9.20;7.67;;;20.60;99.90;;;;;;4973343;28;20198;-77
2021/09/02 08:47:33;;;;;;;7.40;6.60;;;20.80;99.90;;;;;;4986383;28;20205;-77
2021/09/02 08:50:01;;;;;;;8.63;7.17;;;20.80;99.90;;;;;;4972047;28;20280;-77
2021/09/02 08:52:30;;;;;;;9.63;6.77;;;21.20;99.90;;;;;;4976317;28;20206;-77
2021/09/02 08:54:58;;;;;;;12.37;11.37;;;21.40;99.90;;;;;;4974363;28;20201;-76
2021/09/02 08:57:25;;;;;;;7.37;6.37;;;21.50;99.90;;;;;;4982373;28;20198;-79
2021/09/02 08:59:52;;;;;;;8.60;6.97;;;21.50;99.90;;;;;;4979895;28;20218;-81
2021/09/02 09:02:27;;;;;;;7.30;6.50;;;21.60;99.90;;;;;;4974381;28;20659;-80
2021/09/02 09:05:02;;;;;;;8.37;7.47;;;21.60;99.90;;;;;;4982773;28;20662;-80
2021/09/02 09:07:31;;;;;;;9.00;7.53;;;21.60;99.90;;;;;;4986132;28;20200;-79
2021/09/02 09:09:58;;;;;;;12.87;11.77;;;21.60;99.90;;;;;;4979489;28;20674;-77
2021/09/02 09:12:36;;;;;;;10.23;7.40;;;21.80;99.90;;;;;;4989808;28;20257;-80
2021/09/02 09:15:04;;;;;;;12.03;11.03;;;21.90;99.90;;;;;;4983189;28;20202;-78
2021/09/02 09:17:31;;;;;;;10.83;9.87;;;21.70;99.90;;;;;;4971374;28;20302;-80
2021/09/02 09:19:59;;;;;;;15.10;14.00;;;21.90;99.90;;;;;;4973148;28;20225;-79
2021/09/02 09:22:28;;;;;;;16.60;15.13;;;21.90;99.90;;;;;;4992994;28;20217;-80
2021/09/02 09:24:58;;;;;;;14.03;13.00;;;22.00;99.90;;;;;;4973653;28;20206;-82
2021/09/02 09:27:33;;;;;;;15.80;14.57;;;22.40;99.90;;;;;;4968444;28;20262;-77
2021/09/02 09:30:17;;;;;;;14.57;13.37;;;22.50;99.90;;;;;;4978040;28;20205;-76
2021/09/02 09:32:47;;;;;;;14.83;13.73;;;22.30;99.90;;;;;;4977711;28;20206;-77
2021/09/02 09:35:16;;;;;;;13.40;12.17;;;22.40;99.90;;;;;;4979507;28;20256;-77
2021/09/02 09:37:43;;;;;;;10.10;9.00;;;22.00;99.90;;;;;;4971551;28;20203;-78
2021/09/02 09:40:17;;;;;;;11.23;10.20;;;22.00;99.90;;;;;;4973517;28;20222;-77
2021/09/02 09:42:58;;;;;;;14.93;13.67;;;22.00;99.90;;;;;;4979274;28;20264;-77
2021/09/02 09:45:45;;;;;;;10.73;9.63;;;21.70;99.90;;;;;;4978199;28;20209;-77
2021/09/02 09:48:32;;;;;;;14.47;13.37;;;22.10;99.90;;;;;;4975328;28;20205;-77
2021/09/02 09:51:11;;;;;;;11.90;10.67;;;22.30;99.90;;;;;;4969229;28;20219;-77
2021/09/02 09:53:39;;;;;;;9.60;8.67;;;22.20;99.90;;;;;;4978396;28;20210;-77
2021/09/02 09:56:08;;;;;;;9.53;8.20;;;22.50;99.90;;;;;;4974820;28;20572;-77
2021/09/02 09:58:35;;;;;;;8.50;7.63;;;22.50;99.90;;;;;;4971848;28;20201;-77
2021/09/02 10:01:04;;;;;;;10.03;9.23;;;22.60;99.90;;;;;;4979819;28;20234;-77
2021/09/02 10:03:32;;;;;;;13.47;12.30;;;22.60;99.90;;;;;;4977985;28;20206;-77
2021/09/02 10:06:04;;;;;;;11.83;10.73;;;22.30;99.90;;;;;;4980053;28;20245;-77
2021/09/02 10:08:34;;;;;;;10.07;9.23;;;22.10;99.90;;;;;;4980815;28;20221;-77
2021/09/02 10:11:02;;;;;;;8.43;7.23;;;22.00;99.90;;;;;;4978793;28;20226;-77
2021/09/02 10:13:31;;;;;;;8.80;6.33;;;22.00;99.90;;;;;;4978843;28;20265;-76
2021/09/02 10:15:59;;;;;;;10.67;9.70;;;21.90;99.90;;;;;;4973944;28;20186;-77
2021/09/02 10:18:27;;;;;;;9.10;8.20;;;21.90;99.90;;;;;;4977969;28;20197;-77
2021/09/02 10:20:55;;;;;;;6.80;6.10;;;21.90;99.90;;;;;;4972422;28;20222;-77
2021/09/02 10:23:24;;;;;;;7.80;7.10;;;22.10;99.90;;;;;;4979646;28;20207;-77
2021/09/02 10:25:52;;;;;;;11.00;9.93;;;22.00;99.90;;;;;;4968427;28;20202;-76
2021/09/02 10:28:26;;;;;;;7.47;6.67;;;22.00;99.90;;;;;;4974134;28;20205;-77
2021/09/02 10:30:56;;;;;;;7.63;6.83;;;22.10;99.90;;;;;;4968831;28;20309;-77
2021/09/02 10:33:35;;;;;;;11.13;10.13;;;22.30;99.90;;;;;;4974989;28;20209;-77
2021/09/02 10:36:23;;;;;;;15.27;13.97;;;22.20;99.90;;;;;;4971600;28;20252;-77
2021/09/02 10:38:52;;;;;;;13.13;12.20;;;22.00;99.90;;;;;;4970825;28;20194;-77
2021/09/02 10:41:47;;;;;;;12.83;11.93;;;22.00;99.90;;;;;;4979457;28;20232;-77
2021/09/02 10:44:16;;;;;;;13.60;12.53;;;21.90;99.90;;;;;;4975814;28;20201;-77
2021/09/02 10:46:46;;;;;;;13.33;12.23;;;22.00;99.90;;;;;;4980584;28;20249;-77
2021/09/02 10:49:15;;;;;;;11.97;11.17;;;22.00;99.90;;;;;;4978817;28;20198;-77
2021/09/02 10:51:44;;;;;;;12.73;11.73;;;22.00;99.90;;;;;;4971243;28;20273;-77
2021/09/02 10:54:13;;;;;;;12.77;11.67;;;22.00;99.90;;;;;;4979286;28;20261;-77
2021/09/02 10:57:08;;;;;;;12.13;11.20;;;22.00;99.90;;;;;;4978277;28;20205;-77
2021/09/02 10:59:37;;;;;;;12.33;11.40;;;22.10;99.90;;;;;;4938979;28;20583;-77
2021/09/02 11:02:07;;;;;;;11.60;10.73;;;21.90;99.90;;;;;;4974259;28;20757;-77
2021/09/02 11:04:35;;;;;;;12.07;11.07;;;22.00;99.90;;;;;;4995494;28;20205;-77
2021/09/02 11:07:03;;;;;;;11.60;10.50;;;21.90;99.90;;;;;;4981470;28;20197;-77
2021/09/02 11:09:31;;;;;;;12.00;11.10;;;21.60;99.90;;;;;;4981151;28;20728;-77
2021/09/02 11:11:58;;;;;;;11.27;10.37;;;21.70;99.90;;;;;;4975651;28;20784;-77
2021/09/02 11:14:25;;;;;;;11.30;10.50;;;21.70;99.90;;;;;;4976692;28;20547;-77
2021/09/02 11:16:54;;;;;;;11.53;10.63;;;21.60;99.90;;;;;;4974014;28;20671;-77
2021/09/02 11:19:33;;;;;;;11.20;10.40;;;21.60;99.90;;;;;;4980540;28;20213;-77
2021/09/02 11:22:11;;;;;;;12.07;11.00;;;21.60;99.90;;;;;;4969888;28;20221;-77
2021/09/02 11:24:40;;;;;;;10.97;10.17;;;21.70;99.90;;;;;;4969855;28;20666;-77
2021/09/02 11:27:07;;;;;;;11.10;10.30;;;21.70;99.90;;;;;;4995971;28;20252;-76
2021/09/02 11:29:34;;;;;;;11.37;10.47;;;21.80;99.90;;;;;;4981309;28;20256;-78
2021/09/02 11:32:02;;;;;;;11.53;10.33;;;21.80;99.90;;;;;;4976361;28;20215;-76
2021/09/02 11:34:29;;;;;;;11.03;10.23;;;21.70;99.90;;;;;;4982014;28;20222;-76
2021/09/02 11:36:58;;;;;;;12.50;11.20;;;21.60;99.90;;;;;;4980916;28;20208;-76
2021/09/02 11:39:28;;;;;;;11.77;10.90;;;21.70;99.90;;;;;;4973465;28;20213;-77
2021/09/02 11:42:03;;;;;;;11.67;10.87;;;21.60;99.90;;;;;;4975823;28;20237;-76
2021/09/02 11:44:36;;;;;;;11.47;10.67;;;21.70;99.90;;;;;;4972110;28;20227;-77
2021/09/02 11:47:07;;;;;;;7.80;7.10;;;21.60;99.90;;;;;;4974416;28;20197;-77
2021/09/02 11:49:35;;;;;;;7.17;5.40;;;21.60;99.90;;;;;;4975940;28;20206;-78
2021/09/02 11:52:04;;;;;;;5.53;4.90;;;21.60;99.90;;;;;;4975431;28;20212;-77
2021/09/02 11:54:32;;;;;;;4.77;4.13;;;21.60;99.90;;;;;;4972289;28;20190;-78
2021/09/02 11:56:59;;;;;;;5.93;4.90;;;21.70;99.90;;;;;;4972374;28;20314;-76
2021/09/02 11:59:26;;;;;;;4.87;4.30;;;21.80;99.90;;;;;;4970689;28;20695;-79
2021/09/02 12:01:55;;;;;;;6.07;4.53;;;21.90;99.90;;;;;;4985571;28;20224;-83
2021/09/02 12:04:23;;;;;;;5.53;4.57;;;21.80;99.90;;;;;;4984774;28;20216;-81
2021/09/02 12:06:53;;;;;;;5.37;4.63;;;21.70;99.90;;;;;;4974847;28;20296;-81
2021/09/02 12:09:23;;;;;;;5.80;4.40;;;21.70;99.90;;;;;;4977623;28;20198;-81
2021/09/02 12:11:50;;;;;;;6.03;5.37;;;21.70;99.90;;;;;;4979025;28;20236;-80
2021/09/02 12:14:22;;;;;;;8.53;7.73;;;21.80;99.90;;;;;;4989521;28;20209;-82
2021/09/02 12:17:01;;;;;;;6.10;5.50;;;21.80;99.90;;;;;;4988333;28;20209;-80
2021/09/02 12:19:29;;;;;;;10.07;8.07;;;21.90;99.90;;;;;;4988437;28;20210;-80
2021/09/02 12:22:11;;;;;;;5.67;5.17;;;21.80;99.90;;;;;;4980849;28;20221;-80
2021/09/02 12:24:39;;;;;;;10.57;9.50;;;21.80;99.90;;;;;;4980082;28;20202;-82
2021/09/02 12:27:07;;;;;;;5.37;4.87;;;21.90;99.90;;;;;;4980534;28;20550;-80
2021/09/02 12:29:46;;;;;;;8.33;7.63;;;21.90;99.90;;;;;;4983215;28;20548;-81
2021/09/02 12:32:16;;;;;;;6.17;4.77;;;22.00;99.90;;;;;;4977939;28;20193;-82
2021/09/02 12:34:43;;;;;;;7.47;5.63;;;22.00;99.90;;;;;;4991240;28;20205;-80
2021/09/02 12:37:12;;;;;;;6.33;4.97;;;22.10;99.90;;;;;;4989704;28;20205;-80
2021/09/02 12:39:49;;;;;;;6.97;4.63;;;22.10;99.90;;;;;;4987681;28;20233;-81
2021/09/02 12:42:22;;;;;;;5.33;4.27;;;22.10;99.90;;;;;;4992490;28;20221;-80
2021/09/02 12:45:04;;;;;;;6.73;4.93;;;22.00;99.90;;;;;;4982525;28;20203;-80